Abel Tasman — PCVM — position and weather

sailwx.info

Track history (hours):
 
Tides and Currents Weather Stations Pressure Air Temp Water Temp Dewpoint Dewpoint Depression Visibility Wind Speed Wind Dir Waves Ship Positions

Abel Tasman (Netherlands)

Last reported at 2017-May-21 05:41 UTC. Time now 2017-May-23 04:57 UTC.
Position N 54°51' E 010°31'.

Length 38 m.

Type: Sailing vessel. MMSI: 222000333.

Date/timePositionNaut miles runAvg speedWind from/ knotsBaromVisibWave heightAir tempDewpointWater temp
2017-May-21 05:41N 54°51' E 010°31'0 0.0
2017-May-21 04:20N 54°51' E 010°31'0 0.0
2017-May-21 03:47N 54°51' E 010°31'  
2017-May-18 05:58N 54°51' E 010°31'0 0.0
2017-May-18 02:38N 54°51' E 010°31'0 0.0
2017-May-18 00:16N 54°51' E 010°31'0 0.0
2017-May-17 23:58N 54°51' E 010°31'0 0.0
2017-May-17 20:36N 54°51' E 010°31'0 0.0
2017-May-17 20:24N 54°51' E 010°31'0 0.0
2017-May-17 19:58N 54°51' E 010°31'0 0.0
2017-May-17 19:30N 54°51' E 010°31'0 0.0
2017-May-17 18:19N 54°51' E 010°31'0 0.0
2017-May-17 16:15N 54°51' E 010°31'2 4.5
2017-May-17 15:50N 54°53' E 010°34'3 6.3
2017-May-17 15:23N 54°55' E 010°31'8 3.3
2017-May-17 12:51N 54°57' E 010°17'  
2017-May-12 09:45N 54°34' E 010°22'2 8.0
2017-May-12 09:28N 54°35' E 010°25'4 8.4
2017-May-12 08:59N 54°38' E 010°30'4 8.8
2017-May-12 08:30N 54°41' E 010°35'4 8.4
2017-May-12 08:00N 54°45' E 010°39'1 2.1
2017-May-12 07:29N 54°45' E 010°40'0 0.0
2017-May-12 06:56N 54°45' E 010°40'0 0.0
2017-May-12 06:26N 54°45' E 010°40'0 0.0
2017-May-12 05:59N 54°45' E 010°40'0 0.0
2017-May-12 05:14N 54°45' E 010°40'0 0.0
2017-May-12 04:59N 54°45' E 010°40'0 0.0
2017-May-12 04:23N 54°45' E 010°40'0 0.0
2017-May-12 03:59N 54°45' E 010°40'0 0.0
2017-May-12 03:29N 54°45' E 010°40'0 0.0
2017-May-12 02:53N 54°45' E 010°40'0 0.0
2017-May-12 02:23N 54°45' E 010°40'0 0.0
2017-May-12 01:56N 54°45' E 010°40'0 0.0
2017-May-12 01:26N 54°45' E 010°40'0 0.0
2017-May-12 00:56N 54°45' E 010°40'0 0.0
2017-May-12 00:29N 54°45' E 010°40'0 0.0
2017-May-11 23:44N 54°45' E 010°40'0 0.0
2017-May-11 23:17N 54°45' E 010°40'0 0.0
2017-May-11 22:56N 54°45' E 010°40'0 0.0
2017-May-11 22:29N 54°45' E 010°40'0 0.0
2017-May-11 21:53N 54°45' E 010°40'0 0.0
2017-May-11 21:29N 54°45' E 010°40'0 0.0
2017-May-11 20:59N 54°45' E 010°40'0 0.0
2017-May-11 20:29N 54°45' E 010°40'0 0.0
2017-May-11 19:59N 54°45' E 010°40'0 0.0
2017-May-11 19:20N 54°45' E 010°40'0 0.0
2017-May-11 18:59N 54°45' E 010°40'0 0.0
2017-May-11 18:26N 54°45' E 010°40'0 0.0
2017-May-11 18:01N 54°45' E 010°40'1 2.9
2017-May-11 17:31N 54°45' E 010°38'2 3.6
2017-May-11 17:00N 54°43' E 010°37'2 4.6
2017-May-11 16:30N 54°45' E 010°35'1 1.8
2017-May-11 15:52N 54°46' E 010°34'2 3.1
2017-May-11 15:08N 54°44' E 010°32'1 4.2
2017-May-11 15:00N 54°45' E 010°32'2 3.2
2017-May-11 14:30N 54°47' E 010°33'4 1.4
2017-May-11 12:03N 54°50' E 010°35'0 0.3
2017-May-11 11:53N 54°50' E 010°35'0 1.1
2017-May-11 11:29N 54°50' E 010°35'1 1.2
2017-May-11 11:00N 54°50' E 010°34'1 1.6
2017-May-11 10:28N 54°50' E 010°33'1 0.8
2017-May-11 09:40N 54°50' E 010°32'  
Track history (hours):
 
Tides and Currents Weather Stations Pressure Air Temp Water Temp Dewpoint Dewpoint Depression Visibility Wind Speed Wind Dir Waves Ship Positions

Abel Tasman (Netherlands)

Last reported at 2017-May-21 05:41 UTC. Time now 2017-May-23 04:57 UTC.
Position N 54°51' E 010°31'.

Length 38 m.

Type: Sailing vessel. MMSI: 222000333.

Date/timePositionNaut miles runAvg speedWind from/ knotsBaromVisibWave heightAir tempDewpointWater temp
2017-May-21 05:41N 54°51' E 010°31'0 0.0
2017-May-21 04:20N 54°51' E 010°31'0 0.0
2017-May-21 03:47N 54°51' E 010°31'  
2017-May-18 05:58N 54°51' E 010°31'0 0.0
2017-May-18 02:38N 54°51' E 010°31'0 0.0
2017-May-18 00:16N 54°51' E 010°31'0 0.0
2017-May-17 23:58N 54°51' E 010°31'0 0.0
2017-May-17 20:36N 54°51' E 010°31'0 0.0
2017-May-17 20:24N 54°51' E 010°31'0 0.0
2017-May-17 19:58N 54°51' E 010°31'0 0.0
2017-May-17 19:30N 54°51' E 010°31'0 0.0
2017-May-17 18:19N 54°51' E 010°31'0 0.0
2017-May-17 16:15N 54°51' E 010°31'2 4.5
2017-May-17 15:50N 54°53' E 010°34'3 6.3
2017-May-17 15:23N 54°55' E 010°31'8 3.3
2017-May-17 12:51N 54°57' E 010°17'  
2017-May-12 09:45N 54°34' E 010°22'2 8.0
2017-May-12 09:28N 54°35' E 010°25'4 8.4
2017-May-12 08:59N 54°38' E 010°30'4 8.8
2017-May-12 08:30N 54°41' E 010°35'4 8.4
2017-May-12 08:00N 54°45' E 010°39'1 2.1
2017-May-12 07:29N 54°45' E 010°40'0 0.0
2017-May-12 06:56N 54°45' E 010°40'0 0.0
2017-May-12 06:26N 54°45' E 010°40'0 0.0
2017-May-12 05:59N 54°45' E 010°40'0 0.0
2017-May-12 05:14N 54°45' E 010°40'0 0.0
2017-May-12 04:59N 54°45' E 010°40'0 0.0
2017-May-12 04:23N 54°45' E 010°40'0 0.0
2017-May-12 03:59N 54°45' E 010°40'0 0.0
2017-May-12 03:29N 54°45' E 010°40'0 0.0
2017-May-12 02:53N 54°45' E 010°40'0 0.0
2017-May-12 02:23N 54°45' E 010°40'0 0.0
2017-May-12 01:56N 54°45' E 010°40'0 0.0
2017-May-12 01:26N 54°45' E 010°40'0 0.0
2017-May-12 00:56N 54°45' E 010°40'0 0.0
2017-May-12 00:29N 54°45' E 010°40'0 0.0
2017-May-11 23:44N 54°45' E 010°40'0 0.0
2017-May-11 23:17N 54°45' E 010°40'0 0.0
2017-May-11 22:56N 54°45' E 010°40'0 0.0
2017-May-11 22:29N 54°45' E 010°40'0 0.0
2017-May-11 21:53N 54°45' E 010°40'0 0.0
2017-May-11 21:29N 54°45' E 010°40'0 0.0
2017-May-11 20:59N 54°45' E 010°40'0 0.0
2017-May-11 20:29N 54°45' E 010°40'0 0.0
2017-May-11 19:59N 54°45' E 010°40'0 0.0
2017-May-11 19:20N 54°45' E 010°40'0 0.0
2017-May-11 18:59N 54°45' E 010°40'0 0.0
2017-May-11 18:26N 54°45' E 010°40'0 0.0
2017-May-11 18:01N 54°45' E 010°40'1 2.9
2017-May-11 17:31N 54°45' E 010°38'2 3.6
2017-May-11 17:00N 54°43' E 010°37'2 4.6
2017-May-11 16:30N 54°45' E 010°35'1 1.8
2017-May-11 15:52N 54°46' E 010°34'2 3.1
2017-May-11 15:08N 54°44' E 010°32'1 4.2
2017-May-11 15:00N 54°45' E 010°32'2 3.2
2017-May-11 14:30N 54°47' E 010°33'4 1.4
2017-May-11 12:03N 54°50' E 010°35'0 0.3
2017-May-11 11:53N 54°50' E 010°35'0 1.1
2017-May-11 11:29N 54°50' E 010°35'1 1.2
2017-May-11 11:00N 54°50' E 010°34'1 1.6
2017-May-11 10:28N 54°50' E 010°33'1 0.8
2017-May-11 09:40N 54°50' E 010°32'  

Dump ship's entire track history